createdAt,value
2023-04-01T00:00:00.564Z,5.45
2023-04-01T00:05:30.996Z,4.30
2023-04-01T00:08:17.193Z,4.10
2023-04-01T00:11:02.370Z,3.17
2023-04-01T00:13:47.778Z,4.88
2023-04-01T00:16:33.146Z,8.77
2023-04-01T00:19:18.413Z,4.07
2023-04-01T00:22:03.857Z,3.85
2023-04-01T00:24:49.150Z,5.50
2023-04-01T00:27:34.140Z,3.67
2023-04-01T00:30:19.638Z,4.22
2023-04-01T00:33:05.762Z,3.60
2023-04-01T00:35:50.978Z,3.65
2023-04-01T00:38:37.064Z,4.35
2023-04-01T00:41:22.417Z,5.57
2023-04-01T00:44:23.828Z,3.40
2023-04-01T00:47:09.737Z,3.83
2023-04-01T00:49:55.921Z,2.00
2023-04-01T00:52:41.286Z,6.03
2023-04-01T00:55:30.234Z,3.72
2023-04-01T00:58:21.869Z,6.45
2023-04-01T01:01:07.644Z,2.42
2023-04-01T01:03:52.861Z,4.95
2023-04-01T01:06:53.555Z,3.67
2023-04-01T01:09:59.362Z,4.22
2023-04-01T01:13:05.877Z,3.58
2023-04-01T01:16:26.087Z,3.78
2023-04-01T01:19:29.512Z,2.13
2023-04-01T01:22:25.036Z,5.65
2023-04-01T01:25:47.452Z,6.32
2023-04-01T01:29:05.793Z,4.68
2023-04-01T01:31:56.771Z,4.95
2023-04-01T01:35:09.446Z,3.35
2023-04-01T01:38:01.710Z,3.72
2023-04-01T01:40:52.646Z,4.97
2023-04-01T01:43:42.332Z,6.55
2023-04-01T01:46:31.363Z,4.05
2023-04-01T01:49:19.133Z,5.88
2023-04-01T01:52:05.477Z,5.40
2023-04-01T01:54:55.482Z,4.78
2023-04-01T01:57:41.576Z,3.47
2023-04-01T02:00:29.750Z,4.15
2023-04-01T02:03:17.916Z,5.80
2023-04-01T02:06:07.281Z,4.63
2023-04-01T02:09:03.954Z,6.95
2023-04-01T02:11:57.298Z,4.28
2023-04-01T02:15:06.852Z,3.45
2023-04-01T02:17:53.361Z,4.65
2023-04-01T02:20:39.460Z,4.25
2023-04-01T02:23:24.880Z,5.10
2023-04-01T02:26:12.352Z,4.00
2023-04-01T02:28:59.823Z,9.35
2023-04-01T02:31:45.488Z,3.70
2023-04-01T02:34:30.571Z,4.72
2023-04-01T02:37:16.709Z,4.38
2023-04-01T02:40:08.319Z,1.67
2023-04-01T02:42:53.908Z,13.25
2023-04-01T02:45:39.022Z,2.35
2023-04-01T02:48:24.689Z,3.30
2023-04-01T02:51:09.772Z,3.97
2023-04-01T02:53:55.160Z,2.92
2023-04-01T02:56:39.971Z,4.95
2023-04-01T02:59:25.391Z,6.10
2023-04-01T03:02:10.969Z,5.65
2023-04-01T03:04:55.732Z,3.75
2023-04-01T03:07:40.805Z,5.13
2023-04-01T03:10:26.591Z,5.43
2023-04-01T03:13:11.770Z,3.35
2023-04-01T03:15:57.097Z,3.35
2023-04-01T03:18:42.158Z,3.58
2023-04-01T03:21:27.521Z,2.35
2023-04-01T03:24:12.571Z,3.95
2023-04-01T03:26:57.430Z,5.03
2023-04-01T03:29:42.833Z,4.03
2023-04-01T03:32:28.227Z,3.40
2023-04-01T03:35:13.380Z,2.88
2023-04-01T03:37:58.327Z,3.30
2023-04-01T03:40:44.987Z,2.13
2023-04-01T03:43:30.128Z,3.42
2023-04-01T03:46:22.717Z,4.95
2023-04-01T03:49:12.331Z,4.18
2023-04-01T03:51:58.403Z,5.60
2023-04-01T03:54:43.837Z,3.80
2023-04-01T03:57:29.294Z,4.45
2023-04-01T04:00:14.990Z,3.95
2023-04-01T04:02:59.957Z,3.33
2023-04-01T04:05:49.587Z,3.25
2023-04-01T04:08:34.808Z,3.10
2023-04-01T04:11:22.286Z,3.45
2023-04-01T04:14:07.374Z,3.58
2023-04-01T04:16:52.724Z,8.68
2023-04-01T04:19:37.761Z,3.72
2023-04-01T04:22:23.224Z,3.90
2023-04-01T04:25:08.885Z,3.42
2023-04-01T04:27:54.666Z,2.90
2023-04-01T04:30:39.516Z,4.53
2023-04-01T04:33:25.904Z,7.10
2023-04-01T04:36:12.098Z,3.45
2023-04-01T04:38:58.892Z,7.03
2023-04-01T04:41:43.613Z,4.65
2023-04-01T04:44:28.671Z,9.93
2023-04-01T04:47:14.478Z,4.40
2023-04-01T04:49:59.382Z,5.15
2023-04-01T04:52:44.336Z,4.68
2023-04-01T04:55:29.258Z,3.83
2023-04-01T04:58:14.672Z,4.68
2023-04-01T05:00:59.826Z,3.58
2023-04-01T05:03:46.208Z,3.83
2023-04-01T05:06:32.185Z,2.88
2023-04-01T05:09:17.189Z,4.07
2023-04-01T05:12:01.934Z,4.43
2023-04-01T05:14:47.485Z,6.03
2023-04-01T05:17:32.455Z,6.07
2023-04-01T05:20:18.293Z,5.43
2023-04-01T05:23:03.240Z,9.50
2023-04-01T05:25:53.933Z,5.28
2023-04-01T05:28:39.798Z,8.77
2023-04-01T05:31:25.041Z,6.88
2023-04-01T05:34:10.777Z,8.45
2023-04-01T05:36:55.944Z,8.07
2023-04-01T05:39:40.897Z,7.20
2023-04-01T05:42:25.984Z,5.95
2023-04-01T05:45:11.357Z,6.32
2023-04-01T05:47:56.396Z,7.93
2023-04-01T05:50:43.272Z,4.80
2023-04-01T05:53:28.145Z,4.03
2023-04-01T05:56:14.120Z,3.25
2023-04-01T05:58:59.007Z,4.05
2023-04-01T06:01:44.915Z,3.13
2023-04-01T06:04:35.580Z,3.33
2023-04-01T06:07:20.707Z,3.03
2023-04-01T06:10:22.174Z,4.65
2023-04-01T06:13:31.522Z,4.32
2023-04-01T06:16:41.901Z,4.40
2023-04-01T06:19:53.282Z,1.85
2023-04-01T06:22:57.512Z,2.97
2023-04-01T06:26:01.330Z,2.17
2023-04-01T06:29:08.417Z,4.72
2023-04-01T06:32:17.818Z,4.05
2023-04-01T06:35:19.066Z,3.38
2023-04-01T06:38:39.520Z,1.40
2023-04-01T06:41:39.332Z,5.65
2023-04-01T06:44:47.661Z,5.10
2023-04-01T06:47:59.864Z,3.17
2023-04-01T06:51:22.948Z,3.90
2023-04-01T06:54:27.369Z,2.17
2023-04-01T06:57:18.514Z,2.13
2023-04-01T07:00:14.507Z,3.78
2023-04-01T07:03:16.107Z,2.15
2023-04-01T07:06:07.312Z,1.98
2023-04-01T07:08:54.659Z,5.60
2023-04-01T07:11:41.340Z,3.95
2023-04-01T07:14:34.892Z,6.57
2023-04-01T07:20:14.876Z,4.15
2023-04-01T07:23:03.277Z,4.95
2023-04-01T07:25:54.538Z,2.55
2023-04-01T07:28:39.260Z,2.67
2023-04-01T07:31:45.612Z,2.30
2023-04-01T07:35:08.646Z,2.53
2023-04-01T07:38:03.672Z,3.90
2023-04-01T07:41:10.720Z,2.30
2023-04-01T07:44:17.585Z,2.80
2023-04-01T07:47:18.312Z,2.47
2023-04-01T07:50:11.888Z,4.00
2023-04-01T07:53:43.708Z,1.90
2023-04-01T07:56:39.686Z,2.08
2023-04-01T07:59:54.447Z,2.40
2023-04-01T08:03:06.925Z,1.80
2023-04-01T08:06:06.853Z,3.30
2023-04-01T08:09:13.907Z,2.38
2023-04-01T08:12:06.894Z,3.08
2023-04-01T08:15:13.308Z,2.53
2023-04-01T08:18:07.029Z,2.13
2023-04-01T08:20:57.130Z,4.03
2023-04-01T08:23:48.177Z,1.92
2023-04-01T08:26:42.522Z,1.60
2023-04-01T08:29:43.773Z,1.70
2023-04-01T08:32:37.266Z,1.88
2023-04-01T08:35:33.003Z,1.85
2023-04-01T08:38:33.736Z,3.25
2023-04-01T08:41:54.880Z,1.40
2023-04-01T08:45:14.590Z,1.27
2023-04-01T08:48:14.567Z,1.80
2023-04-01T08:54:31.724Z,2.55
2023-04-01T08:57:26.330Z,1.33
2023-04-01T09:00:29.670Z,0.90
2023-04-01T09:03:47.959Z,1.70
2023-04-01T09:07:00.574Z,1.63
2023-04-01T09:10:23.252Z,1.88
2023-04-01T09:14:05.781Z,4.45
2023-04-01T09:17:09.047Z,2.60
2023-04-01T09:20:15.745Z,2.97
2023-04-01T09:23:11.940Z,1.95
2023-04-01T09:26:15.911Z,1.25
2023-04-01T09:29:07.889Z,1.58
2023-04-01T09:32:46.639Z,0.82
2023-04-01T09:35:47.365Z,4.82
2023-04-01T09:38:55.584Z,1.13
2023-04-01T09:42:16.297Z,0.93
2023-04-01T09:45:10.081Z,0.68
2023-04-01T09:48:02.618Z,2.28
2023-04-01T09:50:58.370Z,1.67
2023-04-01T09:53:50.632Z,0.55
2023-04-01T09:56:41.736Z,1.80
2023-04-01T09:59:38.899Z,1.08
2023-04-01T10:03:06.791Z,0.50
2023-04-01T10:06:26.280Z,0.60
2023-04-01T10:09:26.700Z,1.10
2023-04-01T10:12:33.665Z,1.15
2023-04-01T10:15:40.698Z,1.40
2023-04-01T10:18:37.637Z,2.60
2023-04-01T10:21:37.872Z,1.83
2023-04-01T10:25:00.515Z,4.50
2023-04-01T10:27:59.321Z,1.30
2023-04-01T10:31:11.620Z,3.25
2023-04-01T10:34:27.738Z,7.10
2023-04-01T10:37:33.685Z,2.00
2023-04-01T10:40:36.930Z,1.90
2023-04-01T10:43:39.035Z,2.60
2023-04-01T10:46:51.740Z,2.75
2023-04-01T10:50:15.044Z,2.00
2023-04-01T10:53:21.917Z,1.85
2023-04-01T10:56:33.690Z,2.38
2023-04-01T11:00:14.006Z,3.78
2023-04-01T11:03:33.041Z,3.28
2023-04-01T11:06:53.768Z,2.72
2023-04-01T11:09:57.375Z,1.58
2023-04-01T11:13:14.059Z,1.70
2023-04-01T11:16:35.345Z,1.60
2023-04-01T11:19:44.421Z,1.30
2023-04-01T11:22:46.362Z,1.33
2023-04-01T11:25:47.845Z,1.30
2023-04-01T11:28:47.584Z,1.90
2023-04-01T11:31:55.983Z,1.77
2023-04-01T11:34:59.644Z,1.42
2023-04-01T11:38:11.054Z,1.48
2023-04-01T11:41:22.900Z,1.02
2023-04-01T11:44:29.910Z,2.85
2023-04-01T11:47:34.098Z,3.65
2023-04-01T11:50:23.884Z,1.75
2023-04-01T11:53:33.446Z,2.53
2023-04-01T11:56:31.260Z,1.67
2023-04-01T11:59:41.437Z,2.58
2023-04-01T12:02:36.541Z,2.50
2023-04-01T12:05:47.292Z,2.10
2023-04-01T12:08:54.386Z,1.52
2023-04-01T12:11:42.636Z,1.90
2023-04-01T12:14:37.865Z,2.17
2023-04-01T12:17:34.547Z,3.20
2023-04-01T12:20:31.415Z,3.20
2023-04-01T12:23:38.236Z,3.22
2023-04-01T12:26:54.204Z,1.67
2023-04-01T12:30:15.703Z,2.38
2023-04-01T12:33:27.104Z,2.83
2023-04-01T12:36:40.172Z,1.92
2023-04-01T12:39:47.101Z,2.55
2023-04-01T12:43:06.726Z,2.40
2023-04-01T12:46:20.787Z,2.35
2023-04-01T12:49:24.585Z,3.92
2023-04-01T12:52:39.029Z,2.78
2023-04-01T12:55:37.430Z,3.15
2023-04-01T12:58:41.351Z,2.63
2023-04-01T13:01:53.846Z,2.90
2023-04-01T13:08:00.890Z,2.17
2023-04-01T13:11:04.216Z,2.40
2023-04-01T13:14:05.123Z,3.38
2023-04-01T13:17:01.336Z,2.30
2023-04-01T13:20:12.932Z,2.50
2023-04-01T13:23:07.047Z,2.45
2023-04-01T13:26:14.594Z,2.00
2023-04-01T13:29:08.745Z,2.72
2023-04-01T13:32:12.415Z,1.63
2023-04-01T13:35:16.323Z,2.05
2023-04-01T13:38:16.258Z,2.00
2023-04-01T13:41:27.500Z,1.13
2023-04-01T13:44:18.609Z,1.33
2023-04-01T13:47:30.891Z,1.20
2023-04-01T13:50:47.838Z,2.33
2023-04-01T13:53:51.589Z,2.35
2023-04-01T13:56:53.447Z,3.08
2023-04-01T14:00:05.840Z,1.48
2023-04-01T14:03:14.719Z,1.25
2023-04-01T14:06:13.927Z,1.73
2023-04-01T14:09:21.009Z,1.42
2023-04-01T14:12:30.546Z,2.90
2023-04-01T14:15:44.759Z,3.10
2023-04-01T14:19:05.009Z,1.70
2023-04-01T14:21:56.393Z,3.05
2023-04-01T14:24:54.093Z,2.92
2023-04-01T14:28:04.312Z,2.03
2023-04-01T14:31:17.727Z,1.23
2023-04-01T14:34:31.077Z,1.17
2023-04-01T14:38:09.792Z,2.22
2023-04-01T14:41:01.533Z,1.50
2023-04-01T14:44:31.107Z,1.73
2023-04-01T14:47:34.550Z,1.83
2023-04-01T14:50:26.275Z,0.98
2023-04-01T14:53:28.675Z,1.27
2023-04-01T14:56:15.675Z,2.15
2023-04-01T14:59:00.904Z,1.15
2023-04-01T15:02:19.256Z,1.73
2023-04-01T15:05:33.479Z,1.75
2023-04-01T15:08:27.223Z,1.45
2023-04-01T15:11:30.429Z,1.42
2023-04-01T15:14:32.407Z,1.13
2023-04-01T15:17:43.027Z,0.90
2023-04-01T15:20:51.205Z,3.67
2023-04-01T15:23:51.084Z,1.80
2023-04-01T15:26:46.006Z,8.65
2023-04-01T15:29:55.357Z,3.42
2023-04-01T15:33:08.256Z,4.18
2023-04-01T15:36:11.136Z,1.40
2023-04-01T15:39:06.250Z,1.42
2023-04-01T15:42:08.788Z,2.42
2023-04-01T15:44:54.420Z,3.22
2023-04-01T15:47:54.413Z,3.90
2023-04-01T15:53:43.361Z,3.50
2023-04-01T15:56:53.156Z,3.15
2023-04-01T16:00:06.030Z,3.53
2023-04-01T16:03:16.310Z,3.00
2023-04-01T16:06:40.881Z,2.67
2023-04-01T16:09:35.203Z,1.77
2023-04-01T16:12:33.683Z,2.75
2023-04-01T16:15:48.126Z,3.00
2023-04-01T16:18:53.251Z,3.38
2023-04-01T16:21:52.861Z,4.43
2023-04-01T16:25:02.074Z,2.08
2023-04-01T16:28:29.046Z,2.58
2023-04-01T16:31:48.896Z,2.95
2023-04-01T16:34:58.813Z,3.00
2023-04-01T16:37:58.982Z,3.17
2023-04-01T16:41:15.827Z,2.92
2023-04-01T16:44:18.072Z,3.38
2023-04-01T16:47:16.041Z,2.75
2023-04-01T16:50:23.177Z,3.28
2023-04-01T16:53:27.536Z,2.15
2023-04-01T16:56:28.644Z,2.40
2023-04-01T16:59:38.602Z,2.25
2023-04-01T17:02:39.429Z,2.13
2023-04-01T17:05:43.158Z,2.45
2023-04-01T17:08:37.273Z,1.98
2023-04-01T17:11:43.942Z,2.03
2023-04-01T17:14:41.960Z,1.75
2023-04-01T17:18:30.941Z,3.08
2023-04-01T17:27:34.572Z,5.15
2023-04-01T17:30:28.581Z,3.28
2023-04-01T17:33:25.778Z,1.70
2023-04-01T17:36:37.228Z,3.15
2023-04-01T17:39:48.025Z,2.25
2023-04-01T17:43:01.043Z,2.10
2023-04-01T17:46:11.961Z,3.33
2023-04-01T17:49:35.159Z,3.83
2023-04-01T17:52:23.120Z,2.75
2023-04-01T17:55:30.333Z,3.63
2023-04-01T17:58:23.999Z,4.25
2023-04-01T18:04:06.047Z,1.92
2023-04-01T18:07:37.573Z,4.88
2023-04-01T18:10:53.198Z,3.30
2023-04-01T18:13:58.846Z,2.80
2023-04-01T18:16:55.105Z,3.80
2023-04-01T18:19:43.339Z,4.57
2023-04-01T18:22:44.438Z,3.00
2023-04-01T18:25:42.795Z,3.13
2023-04-01T18:28:31.205Z,3.83
2023-04-01T18:31:24.364Z,3.60
2023-04-01T18:34:49.229Z,3.45
2023-04-01T18:37:58.627Z,3.88
2023-04-01T18:40:52.484Z,5.55
2023-04-01T18:43:52.689Z,3.28
2023-04-01T18:46:49.728Z,4.18
2023-04-01T18:49:47.197Z,5.88
2023-04-01T18:52:41.006Z,4.82
2023-04-01T18:55:35.786Z,3.70
2023-04-01T18:58:24.724Z,3.92
2023-04-01T19:01:32.743Z,5.32
2023-04-01T19:04:35.154Z,3.75
2023-04-01T19:07:51.584Z,3.85
2023-04-01T19:10:52.123Z,4.50
2023-04-01T19:16:38.414Z,4.80
2023-04-01T19:19:46.730Z,4.03
2023-04-01T19:22:50.793Z,2.92
2023-04-01T19:25:55.227Z,4.50
2023-04-01T19:28:46.928Z,3.38
2023-04-01T19:32:02.024Z,4.82
2023-04-01T19:35:32.138Z,4.50
2023-04-01T19:38:59.571Z,2.60
2023-04-01T19:42:03.271Z,5.13
2023-04-01T19:45:02.110Z,3.55
2023-04-01T19:48:03.798Z,5.88
2023-04-01T19:50:55.090Z,7.03
2023-04-01T19:54:18.438Z,5.00
2023-04-01T19:57:19.014Z,5.72
2023-04-01T20:00:08.934Z,5.57
2023-04-01T20:03:51.199Z,4.78
2023-04-01T20:07:00.365Z,5.38
2023-04-01T20:09:54.128Z,5.50
2023-04-01T20:12:53.998Z,5.25
2023-04-01T20:15:44.382Z,5.70
2023-04-01T20:18:42.598Z,5.93
2023-04-01T20:21:40.240Z,6.68
2023-04-01T20:24:40.424Z,7.50
2023-04-01T20:30:29.190Z,6.20
2023-04-01T20:33:30.523Z,8.48
2023-04-01T20:36:59.102Z,5.57
2023-04-01T20:40:07.499Z,4.72
2023-04-01T20:43:23.274Z,6.93
2023-04-01T20:46:28.102Z,7.22
2023-04-01T20:49:19.537Z,7.90
2023-04-01T20:52:13.592Z,9.52
2023-04-01T20:55:17.729Z,5.90
2023-04-01T20:58:14.804Z,5.82
2023-04-01T21:01:25.030Z,5.60
2023-04-01T21:04:38.219Z,5.45
2023-04-01T21:07:46.922Z,4.03
2023-04-01T21:10:48.398Z,5.68
2023-04-01T21:14:14.256Z,4.78
2023-04-01T21:17:05.108Z,4.50
2023-04-01T21:20:04.907Z,5.88
2023-04-01T21:23:11.245Z,6.70
2023-04-01T21:26:20.327Z,4.55
2023-04-01T21:29:26.662Z,4.78
2023-04-01T21:32:36.862Z,7.40
2023-04-01T21:35:52.542Z,8.40
2023-04-01T21:38:56.473Z,6.10
2023-04-01T21:42:12.433Z,6.55
2023-04-01T21:45:38.116Z,10.05
2023-04-01T21:48:57.747Z,6.88
2023-04-01T21:52:07.744Z,9.30
2023-04-01T21:55:23.516Z,6.30
2023-04-01T21:58:25.120Z,7.90
2023-04-01T22:01:53.350Z,10.57
2023-04-01T22:05:00.021Z,9.27
2023-04-01T22:08:28.858Z,6.20
2023-04-01T22:11:45.885Z,5.07
2023-04-01T22:14:32.452Z,6.05
2023-04-01T22:17:22.509Z,7.30
2023-04-01T22:20:24.410Z,7.32
2023-04-01T22:23:36.209Z,8.10
2023-04-01T22:26:32.362Z,7.78
2023-04-01T22:29:36.316Z,10.65
2023-04-01T22:32:28.097Z,8.60
2023-04-01T22:35:53.132Z,8.50
2023-04-01T22:38:48.816Z,6.55
2023-04-01T22:41:46.159Z,6.00
2023-04-01T22:44:43.152Z,5.40
2023-04-01T22:47:58.140Z,5.90
2023-04-01T22:50:48.966Z,8.60
2023-04-01T22:53:47.644Z,6.53
2023-04-01T22:56:41.791Z,6.80
2023-04-01T22:59:41.632Z,8.23
2023-04-01T23:02:40.932Z,6.50
2023-04-01T23:05:27.014Z,6.97
2023-04-01T23:08:42.734Z,6.18
2023-04-01T23:11:38.754Z,4.53
2023-04-01T23:14:38.898Z,6.38
2023-04-01T23:17:49.759Z,8.20
2023-04-01T23:20:42.877Z,6.32
2023-04-01T23:23:47.402Z,4.85
2023-04-01T23:26:49.896Z,6.75
2023-04-01T23:29:44.570Z,6.95
2023-04-01T23:32:29.860Z,5.22
2023-04-01T23:35:18.615Z,6.97
2023-04-01T23:38:03.541Z,4.43
2023-04-01T23:40:55.300Z,5.95
2023-04-01T23:43:43.696Z,5.53
2023-04-01T23:46:31.440Z,5.28
2023-04-01T23:49:24.604Z,5.95
2023-04-01T23:52:15.769Z,5.95
2023-04-01T23:55:27.541Z,9.25
2023-04-01T23:58:22.097Z,4.43
